sensor_id;sensor_type;location;lat;lon;timestamp;pressure;altitude;pressure_sealevel;temperature;humidity
8051;BME280;4068;42.158;24.732;2023-01-29T00:00:07;99815.97;;;3.72;94.67
8051;BME280;4068;42.158;24.732;2023-01-29T00:02:35;99818.50;;;3.75;94.35
8051;BME280;4068;42.158;24.732;2023-01-29T00:05:00;99823.59;;;3.78;94.63
8051;BME280;4068;42.158;24.732;2023-01-29T00:07:26;99829.59;;;3.80;93.21
8051;BME280;4068;42.158;24.732;2023-01-29T00:09:51;99802.75;;;3.75;93.29
8051;BME280;4068;42.158;24.732;2023-01-29T00:12:17;99831.16;;;3.84;93.67
8051;BME280;4068;42.158;24.732;2023-01-29T00:14:42;99793.53;;;3.66;93.65
8051;BME280;4068;42.158;24.732;2023-01-29T00:17:07;99811.69;;;3.71;93.47
8051;BME280;4068;42.158;24.732;2023-01-29T00:19:34;99831.22;;;3.83;93.41
8051;BME280;4068;42.158;24.732;2023-01-29T00:22:00;99820.97;;;3.78;93.73
8051;BME280;4068;42.158;24.732;2023-01-29T00:24:26;99820.31;;;3.73;93.95
8051;BME280;4068;42.158;24.732;2023-01-29T00:26:51;99841.59;;;3.67;94.57
8051;BME280;4068;42.158;24.732;2023-01-29T00:29:16;99837.13;;;3.69;95.04
8051;BME280;4068;42.158;24.732;2023-01-29T00:31:43;99844.50;;;3.60;95.30
8051;BME280;4068;42.158;24.732;2023-01-29T00:34:09;99829.06;;;3.54;95.53
8051;BME280;4068;42.158;24.732;2023-01-29T00:36:34;99854.41;;;3.73;95.13
8051;BME280;4068;42.158;24.732;2023-01-29T00:39:00;99856.41;;;3.87;94.03
8051;BME280;4068;42.158;24.732;2023-01-29T00:41:30;99859.09;;;3.85;94.24
8051;BME280;4068;42.158;24.732;2023-01-29T00:44:15;99852.44;;;3.78;94.36
8051;BME280;4068;42.158;24.732;2023-01-29T00:46:59;99851.56;;;3.77;94.34
8051;BME280;4068;42.158;24.732;2023-01-29T00:49:25;99861.22;;;3.77;94.36
8051;BME280;4068;42.158;24.732;2023-01-29T00:51:50;99835.50;;;3.66;94.26
8051;BME280;4068;42.158;24.732;2023-01-29T00:54:35;99850.16;;;3.70;94.04
8051;BME280;4068;42.158;24.732;2023-01-29T00:57:01;99844.16;;;3.68;93.95
8051;BME280;4068;42.158;24.732;2023-01-29T00:59:26;99855.34;;;3.72;93.94
8051;BME280;4068;42.158;24.732;2023-01-29T01:01:52;99843.44;;;3.65;93.63
8051;BME280;4068;42.158;24.732;2023-01-29T01:04:36;99822.97;;;3.54;93.12
8051;BME280;4068;42.158;24.732;2023-01-29T01:07:01;99842.09;;;3.56;93.42
8051;BME280;4068;42.158;24.732;2023-01-29T01:09:27;99809.59;;;3.41;94.22
8051;BME280;4068;42.158;24.732;2023-01-29T01:12:14;99856.47;;;3.66;93.75
8051;BME280;4068;42.158;24.732;2023-01-29T01:14:39;99853.00;;;3.66;93.90
8051;BME280;4068;42.158;24.732;2023-01-29T01:17:07;99851.31;;;3.65;94.28
8051;BME280;4068;42.158;24.732;2023-01-29T01:19:33;99838.63;;;3.55;94.21
8051;BME280;4068;42.158;24.732;2023-01-29T01:21:58;99859.09;;;3.66;94.23
8051;BME280;4068;42.158;24.732;2023-01-29T01:24:24;99856.13;;;3.55;94.53
8051;BME280;4068;42.158;24.732;2023-01-29T01:26:49;99855.13;;;3.57;94.86
8051;BME280;4068;42.158;24.732;2023-01-29T01:29:14;99852.38;;;3.60;94.66
8051;BME280;4068;42.158;24.732;2023-01-29T01:31:40;99860.31;;;3.59;95.04
8051;BME280;4068;42.158;24.732;2023-01-29T01:34:05;99863.56;;;3.64;95.03
8051;BME280;4068;42.158;24.732;2023-01-29T01:36:31;99836.84;;;3.56;94.85
8051;BME280;4068;42.158;24.732;2023-01-29T01:38:57;99865.69;;;3.56;95.38
8051;BME280;4068;42.158;24.732;2023-01-29T01:41:22;99823.59;;;3.40;95.58
8051;BME280;4068;42.158;24.732;2023-01-29T01:43:52;99858.41;;;3.62;95.35
8051;BME280;4068;42.158;24.732;2023-01-29T01:46:19;99850.47;;;3.64;95.37
8051;BME280;4068;42.158;24.732;2023-01-29T01:48:50;99853.78;;;3.68;94.98
8051;BME280;4068;42.158;24.732;2023-01-29T01:51:18;99848.59;;;3.66;95.04
8051;BME280;4068;42.158;24.732;2023-01-29T01:53:54;99844.22;;;3.67;94.42
8051;BME280;4068;42.158;24.732;2023-01-29T01:56:25;99848.75;;;3.63;94.40
8051;BME280;4068;42.158;24.732;2023-01-29T01:58:56;99826.97;;;3.43;94.99
8051;BME280;4068;42.158;24.732;2023-01-29T02:01:24;99859.25;;;3.63;94.70
8051;BME280;4068;42.158;24.732;2023-01-29T02:04:00;99863.34;;;3.69;94.37
8051;BME280;4068;42.158;24.732;2023-01-29T02:06:45;99859.66;;;3.73;94.31
8051;BME280;4068;42.158;24.732;2023-01-29T02:09:53;99856.28;;;3.71;94.57
8051;BME280;4068;42.158;24.732;2023-01-29T02:12:21;99857.19;;;3.70;94.75
8051;BME280;4068;42.158;24.732;2023-01-29T02:14:47;99861.53;;;3.71;94.73
8051;BME280;4068;42.158;24.732;2023-01-29T02:17:15;99872.09;;;3.69;94.51
8051;BME280;4068;42.158;24.732;2023-01-29T02:28:23;99878.88;;;3.54;95.91
8051;BME280;4068;42.158;24.732;2023-01-29T02:42:00;99886.47;;;3.60;97.56
8051;BME280;4068;42.158;24.732;2023-01-29T02:44:42;99888.25;;;3.60;98.40
8051;BME280;4068;42.158;24.732;2023-01-29T02:49:43;99884.97;;;3.55;99.10
8051;BME280;4068;42.158;24.732;2023-01-29T02:52:18;99895.69;;;3.50;99.75
8051;BME280;4068;42.158;24.732;2023-01-29T02:54:52;99884.69;;;3.42;100.00
8051;BME280;4068;42.158;24.732;2023-01-29T02:57:26;99898.59;;;3.44;100.00
8051;BME280;4068;42.158;24.732;2023-01-29T02:59:57;99879.66;;;3.37;100.00
8051;BME280;4068;42.158;24.732;2023-01-29T03:08:10;99899.09;;;3.52;100.00
8051;BME280;4068;42.158;24.732;2023-01-29T03:10:39;99904.75;;;3.43;100.00
8051;BME280;4068;42.158;24.732;2023-01-29T03:13:17;99897.59;;;3.47;100.00
8051;BME280;4068;42.158;24.732;2023-01-29T03:15:49;99892.38;;;3.47;100.00
8051;BME280;4068;42.158;24.732;2023-01-29T03:18:23;99877.31;;;3.31;100.00
8051;BME280;4068;42.158;24.732;2023-01-29T03:20:58;99872.91;;;3.32;100.00
8051;BME280;4068;42.158;24.732;2023-01-29T03:23:28;99905.69;;;3.61;100.00
8051;BME280;4068;42.158;24.732;2023-01-29T03:26:14;99899.72;;;3.57;99.58
8051;BME280;4068;42.158;24.732;2023-01-29T03:28:59;99906.75;;;3.57;99.29
8051;BME280;4068;42.158;24.732;2023-01-29T03:31:44;99912.97;;;3.73;98.09
8051;BME280;4068;42.158;24.732;2023-01-29T03:34:37;99915.19;;;3.63;98.04
8051;BME280;4068;42.158;24.732;2023-01-29T03:37:21;99921.97;;;3.68;98.64
8051;BME280;4068;42.158;24.732;2023-01-29T03:39:48;99913.34;;;3.66;98.26
8051;BME280;4068;42.158;24.732;2023-01-29T03:45:22;99917.03;;;3.61;99.08
8051;BME280;4068;42.158;24.732;2023-01-29T03:50:39;99924.28;;;3.56;100.00
8051;BME280;4068;42.158;24.732;2023-01-29T03:58:33;99930.56;;;3.52;99.60
8051;BME280;4068;42.158;24.732;2023-01-29T04:01:15;99913.66;;;3.39;100.00
8051;BME280;4068;42.158;24.732;2023-01-29T04:03:49;99943.88;;;3.48;100.00
8051;BME280;4068;42.158;24.732;2023-01-29T04:06:21;99909.03;;;3.25;100.00
8051;BME280;4068;42.158;24.732;2023-01-29T04:09:02;99939.19;;;3.35;100.00
8051;BME280;4068;42.158;24.732;2023-01-29T04:11:30;99956.28;;;3.44;100.00
8051;BME280;4068;42.158;24.732;2023-01-29T04:13:57;99956.97;;;3.48;100.00
8051;BME280;4068;42.158;24.732;2023-01-29T04:16:28;99955.28;;;3.47;100.00
8051;BME280;4068;42.158;24.732;2023-01-29T04:18:56;99958.75;;;3.47;100.00
8051;BME280;4068;42.158;24.732;2023-01-29T04:21:22;99959.59;;;3.48;100.00
8051;BME280;4068;42.158;24.732;2023-01-29T04:23:49;99962.88;;;3.53;100.00
8051;BME280;4068;42.158;24.732;2023-01-29T04:29:04;99964.97;;;3.44;100.00
8051;BME280;4068;42.158;24.732;2023-01-29T04:31:39;99963.88;;;3.50;100.00
8051;BME280;4068;42.158;24.732;2023-01-29T04:37:04;99956.94;;;3.68;100.00
8051;BME280;4068;42.158;24.732;2023-01-29T04:39:48;99969.50;;;4.00;100.00
8051;BME280;4068;42.158;24.732;2023-01-29T04:50:47;99971.41;;;3.96;100.00
8051;BME280;4068;42.158;24.732;2023-01-29T04:53:27;99932.72;;;3.82;100.00
8051;BME280;4068;42.158;24.732;2023-01-29T04:56:22;99971.16;;;4.02;100.00
8051;BME280;4068;42.158;24.732;2023-01-29T04:58:55;99967.19;;;3.93;100.00
8051;BME280;4068;42.158;24.732;2023-01-29T05:01:25;99981.47;;;3.86;100.00
8051;BME280;4068;42.158;24.732;2023-01-29T05:03:54;99967.50;;;3.86;100.00
8051;BME280;4068;42.158;24.732;2023-01-29T05:06:21;99985.03;;;3.85;100.00
8051;BME280;4068;42.158;24.732;2023-01-29T05:08:50;99981.16;;;3.75;100.00
8051;BME280;4068;42.158;24.732;2023-01-29T05:11:16;99996.38;;;3.67;100.00
8051;BME280;4068;42.158;24.732;2023-01-29T05:13:42;99995.63;;;3.63;100.00
8051;BME280;4068;42.158;24.732;2023-01-29T05:16:15;99996.88;;;3.35;100.00
8051;BME280;4068;42.158;24.732;2023-01-29T05:18:43;99996.28;;;3.28;100.00
8051;BME280;4068;42.158;24.732;2023-01-29T05:21:09;99977.47;;;3.19;100.00
8051;BME280;4068;42.158;24.732;2023-01-29T05:23:35;99992.88;;;3.26;100.00
8051;BME280;4068;42.158;24.732;2023-01-29T05:26:00;99999.06;;;3.03;100.00
8051;BME280;4068;42.158;24.732;2023-01-29T05:28:26;99981.63;;;2.82;100.00
8051;BME280;4068;42.158;24.732;2023-01-29T05:30:54;99997.56;;;2.98;100.00
8051;BME280;4068;42.158;24.732;2023-01-29T05:33:32;100006.63;;;3.11;100.00
8051;BME280;4068;42.158;24.732;2023-01-29T05:35:58;100005.59;;;3.15;100.00
8051;BME280;4068;42.158;24.732;2023-01-29T05:38:24;100013.69;;;3.09;100.00
8051;BME280;4068;42.158;24.732;2023-01-29T05:40:50;100012.91;;;3.07;100.00
8051;BME280;4068;42.158;24.732;2023-01-29T05:43:17;100013.44;;;3.15;100.00
8051;BME280;4068;42.158;24.732;2023-01-29T05:45:57;100005.13;;;3.26;100.00
8051;BME280;4068;42.158;24.732;2023-01-29T05:48:24;100006.16;;;3.22;100.00
8051;BME280;4068;42.158;24.732;2023-01-29T05:50:50;100012.00;;;3.28;100.00
8051;BME280;4068;42.158;24.732;2023-01-29T05:53:15;100018.09;;;3.29;100.00
8051;BME280;4068;42.158;24.732;2023-01-29T05:55:47;100014.69;;;3.27;100.00
8051;BME280;4068;42.158;24.732;2023-01-29T05:58:13;100027.28;;;3.39;100.00
8051;BME280;4068;42.158;24.732;2023-01-29T06:00:38;100026.56;;;3.36;100.00
8051;BME280;4068;42.158;24.732;2023-01-29T06:03:04;100006.94;;;3.44;100.00
8051;BME280;4068;42.158;24.732;2023-01-29T06:05:30;100034.59;;;3.52;100.00
8051;BME280;4068;42.158;24.732;2023-01-29T06:07:55;100003.88;;;3.35;100.00
8051;BME280;4068;42.158;24.732;2023-01-29T06:10:21;100034.66;;;3.50;100.00
8051;BME280;4068;42.158;24.732;2023-01-29T06:12:46;100040.31;;;3.61;100.00
8051;BME280;4068;42.158;24.732;2023-01-29T06:15:12;100041.63;;;3.51;100.00
8051;BME280;4068;42.158;24.732;2023-01-29T06:17:40;100029.03;;;3.59;100.00
8051;BME280;4068;42.158;24.732;2023-01-29T06:20:06;100045.03;;;3.74;100.00
8051;BME280;4068;42.158;24.732;2023-01-29T06:22:32;100045.34;;;3.66;100.00
8051;BME280;4068;42.158;24.732;2023-01-29T06:24:58;100053.53;;;3.79;100.00
8051;BME280;4068;42.158;24.732;2023-01-29T06:27:23;100046.31;;;3.84;100.00
8051;BME280;4068;42.158;24.732;2023-01-29T06:29:49;100054.94;;;3.86;100.00
8051;BME280;4068;42.158;24.732;2023-01-29T06:32:14;100053.78;;;3.93;100.00
8051;BME280;4068;42.158;24.732;2023-01-29T06:34:40;100063.94;;;4.01;100.00
8051;BME280;4068;42.158;24.732;2023-01-29T06:37:05;100067.00;;;4.11;100.00
8051;BME280;4068;42.158;24.732;2023-01-29T06:39:32;100053.88;;;4.11;100.00
8051;BME280;4068;42.158;24.732;2023-01-29T06:41:58;100075.75;;;4.30;100.00
8051;BME280;4068;42.158;24.732;2023-01-29T06:44:23;100081.59;;;4.36;100.00
8051;BME280;4068;42.158;24.732;2023-01-29T06:46:48;100071.69;;;4.42;99.83
8051;BME280;4068;42.158;24.732;2023-01-29T06:49:14;100050.41;;;4.29;98.71
8051;BME280;4068;42.158;24.732;2023-01-29T06:51:39;100079.00;;;4.55;98.40
8051;BME280;4068;42.158;24.732;2023-01-29T06:54:05;100082.69;;;4.51;97.14
8051;BME280;4068;42.158;24.732;2023-01-29T06:56:32;100077.97;;;4.57;97.58
8051;BME280;4068;42.158;24.732;2023-01-29T06:58:58;100064.91;;;4.56;96.03
8051;BME280;4068;42.158;24.732;2023-01-29T07:01:24;100089.47;;;4.74;95.33
8051;BME280;4068;42.158;24.732;2023-01-29T07:03:49;100092.09;;;4.74;94.58
8051;BME280;4068;42.158;24.732;2023-01-29T07:06:16;100088.41;;;4.78;95.07
8051;BME280;4068;42.158;24.732;2023-01-29T07:08:41;100094.00;;;4.89;94.39
8051;BME280;4068;42.158;24.732;2023-01-29T07:11:07;100083.84;;;4.81;93.73
8051;BME280;4068;42.158;24.732;2023-01-29T07:13:32;100098.28;;;4.92;94.39
8051;BME280;4068;42.158;24.732;2023-01-29T07:16:02;100085.88;;;4.94;93.78
8051;BME280;4068;42.158;24.732;2023-01-29T07:18:28;100105.31;;;5.09;93.88
8051;BME280;4068;42.158;24.732;2023-01-29T07:20:54;100103.47;;;5.11;93.71
8051;BME280;4068;42.158;24.732;2023-01-29T07:23:20;100092.16;;;5.09;93.01
8051;BME280;4068;42.158;24.732;2023-01-29T07:25:46;100100.69;;;5.14;92.75
8051;BME280;4068;42.158;24.732;2023-01-29T07:28:14;100103.00;;;5.20;93.23
8051;BME280;4068;42.158;24.732;2023-01-29T07:30:40;100117.59;;;5.45;93.14
8051;BME280;4068;42.158;24.732;2023-01-29T07:33:07;100106.59;;;5.54;92.50
8051;BME280;4068;42.158;24.732;2023-01-29T07:35:40;100107.38;;;5.74;91.25
8051;BME280;4068;42.158;24.732;2023-01-29T07:38:07;100112.06;;;5.67;89.83
8051;BME280;4068;42.158;24.732;2023-01-29T07:40:34;100107.38;;;5.74;91.20
8051;BME280;4068;42.158;24.732;2023-01-29T07:43:00;100104.56;;;5.77;89.14
8051;BME280;4068;42.158;24.732;2023-01-29T07:45:29;100092.13;;;5.80;89.65
8051;BME280;4068;42.158;24.732;2023-01-29T07:47:56;100107.25;;;5.93;88.69
8051;BME280;4068;42.158;24.732;2023-01-29T07:50:25;100099.59;;;5.88;88.55
8051;BME280;4068;42.158;24.732;2023-01-29T07:52:53;100104.09;;;5.86;88.82
8051;BME280;4068;42.158;24.732;2023-01-29T07:55:18;100098.91;;;5.67;89.49
8051;BME280;4068;42.158;24.732;2023-01-29T07:57:44;100118.66;;;5.76;90.08
8051;BME280;4068;42.158;24.732;2023-01-29T08:00:11;100113.38;;;5.76;90.70
8051;BME280;4068;42.158;24.732;2023-01-29T08:02:36;100117.13;;;5.72;89.87
8051;BME280;4068;42.158;24.732;2023-01-29T08:05:03;100121.16;;;5.79;90.82
8051;BME280;4068;42.158;24.732;2023-01-29T08:07:28;100092.50;;;5.55;91.41
8051;BME280;4068;42.158;24.732;2023-01-29T08:09:53;100129.44;;;5.53;92.99
8051;BME280;4068;42.158;24.732;2023-01-29T08:12:19;100129.03;;;5.61;93.40
8051;BME280;4068;42.158;24.732;2023-01-29T08:14:44;100137.22;;;5.73;92.89
8051;BME280;4068;42.158;24.732;2023-01-29T08:17:11;100140.97;;;5.86;92.15
8051;BME280;4068;42.158;24.732;2023-01-29T08:19:36;100132.44;;;5.98;92.33
8051;BME280;4068;42.158;24.732;2023-01-29T08:22:02;100136.75;;;6.17;92.80
8051;BME280;4068;42.158;24.732;2023-01-29T08:24:28;100132.03;;;6.39;91.12
8051;BME280;4068;42.158;24.732;2023-01-29T08:26:53;100134.59;;;6.41;90.00
8051;BME280;4068;42.158;24.732;2023-01-29T08:29:19;100128.56;;;6.55;89.59
8051;BME280;4068;42.158;24.732;2023-01-29T08:31:44;100109.94;;;6.42;88.65
8051;BME280;4068;42.158;24.732;2023-01-29T08:34:10;100137.19;;;6.74;88.04
8051;BME280;4068;42.158;24.732;2023-01-29T08:36:35;100143.22;;;6.61;88.02
8051;BME280;4068;42.158;24.732;2023-01-29T08:39:01;100142.09;;;6.81;88.44
8051;BME280;4068;42.158;24.732;2023-01-29T08:41:26;100140.09;;;6.86;88.36
8051;BME280;4068;42.158;24.732;2023-01-29T08:43:51;100149.63;;;6.88;87.39
8051;BME280;4068;42.158;24.732;2023-01-29T08:46:17;100120.09;;;6.82;86.41
8051;BME280;4068;42.158;24.732;2023-01-29T08:48:42;100155.19;;;6.98;85.02
8051;BME280;4068;42.158;24.732;2023-01-29T08:51:08;100150.25;;;7.08;84.71
8051;BME280;4068;42.158;24.732;2023-01-29T08:53:33;100163.97;;;7.15;85.50
8051;BME280;4068;42.158;24.732;2023-01-29T08:55:59;100152.13;;;7.22;84.85
8051;BME280;4068;42.158;24.732;2023-01-29T08:58:24;100153.56;;;7.28;86.03
8051;BME280;4068;42.158;24.732;2023-01-29T09:00:50;100150.41;;;7.21;86.92
8051;BME280;4068;42.158;24.732;2023-01-29T09:03:15;100152.06;;;6.91;87.71
8051;BME280;4068;42.158;24.732;2023-01-29T09:05:40;100153.34;;;7.00;87.20
8051;BME280;4068;42.158;24.732;2023-01-29T09:08:07;100140.31;;;7.13;86.89
8051;BME280;4068;42.158;24.732;2023-01-29T09:10:33;100121.44;;;7.05;87.38
8051;BME280;4068;42.158;24.732;2023-01-29T09:12:59;100156.66;;;7.20;86.67
8051;BME280;4068;42.158;24.732;2023-01-29T09:15:24;100149.13;;;7.28;87.02
8051;BME280;4068;42.158;24.732;2023-01-29T09:17:50;100152.25;;;7.51;87.07
8051;BME280;4068;42.158;24.732;2023-01-29T09:20:16;100136.22;;;7.54;85.34
8051;BME280;4068;42.158;24.732;2023-01-29T09:22:42;100156.25;;;7.72;86.24
8051;BME280;4068;42.158;24.732;2023-01-29T09:25:08;100144.03;;;7.86;85.79
8051;BME280;4068;42.158;24.732;2023-01-29T09:27:33;100142.94;;;7.90;84.29
8051;BME280;4068;42.158;24.732;2023-01-29T09:29:59;100145.25;;;7.80;84.31
8051;BME280;4068;42.158;24.732;2023-01-29T09:32:24;100146.53;;;7.58;87.22
8051;BME280;4068;42.158;24.732;2023-01-29T09:34:50;100104.06;;;7.47;87.93
8051;BME280;4068;42.158;24.732;2023-01-29T09:37:15;100143.63;;;7.63;87.63
8051;BME280;4068;42.158;24.732;2023-01-29T09:39:47;100150.34;;;7.38;86.79
8051;BME280;4068;42.158;24.732;2023-01-29T09:42:36;100145.97;;;7.37;89.29
8051;BME280;4068;42.158;24.732;2023-01-29T09:45:20;100141.81;;;7.64;86.32
8051;BME280;4068;42.158;24.732;2023-01-29T09:47:49;100129.41;;;7.80;85.89
8051;BME280;4068;42.158;24.732;2023-01-29T09:50:22;100138.97;;;7.97;83.65
8051;BME280;4068;42.158;24.732;2023-01-29T09:52:57;100128.38;;;7.83;84.37
8051;BME280;4068;42.158;24.732;2023-01-29T09:55:27;100132.06;;;7.80;85.00
8051;BME280;4068;42.158;24.732;2023-01-29T09:57:58;100128.63;;;7.64;81.94
8051;BME280;4068;42.158;24.732;2023-01-29T10:03:18;100122.34;;;7.81;82.58
8051;BME280;4068;42.158;24.732;2023-01-29T10:11:06;100111.75;;;7.66;86.48
8051;BME280;4068;42.158;24.732;2023-01-29T10:16:17;100122.16;;;7.84;83.55
8051;BME280;4068;42.158;24.732;2023-01-29T10:26:30;100097.09;;;8.05;81.78
8051;BME280;4068;42.158;24.732;2023-01-29T10:29:00;100068.31;;;8.01;83.09
8051;BME280;4068;42.158;24.732;2023-01-29T10:31:31;100088.22;;;8.06;82.41
8051;BME280;4068;42.158;24.732;2023-01-29T10:36:46;100053.41;;;8.00;83.29
8051;BME280;4068;42.158;24.732;2023-01-29T10:39:22;100051.59;;;8.15;80.90
8051;BME280;4068;42.158;24.732;2023-01-29T10:44:40;100074.63;;;8.27;81.47
8051;BME280;4068;42.158;24.732;2023-01-29T10:55:23;100066.09;;;7.50;82.63
8051;BME280;4068;42.158;24.732;2023-01-29T11:00:27;100062.72;;;7.76;82.79
8051;BME280;4068;42.158;24.732;2023-01-29T11:02:55;100062.97;;;7.43;82.28
8051;BME280;4068;42.158;24.732;2023-01-29T11:05:36;100062.91;;;7.59;83.21
8051;BME280;4068;42.158;24.732;2023-01-29T11:08:27;100036.28;;;7.48;81.60
8051;BME280;4068;42.158;24.732;2023-01-29T11:11:13;100050.09;;;7.53;82.67
8051;BME280;4068;42.158;24.732;2023-01-29T11:13:44;100056.88;;;7.57;81.57
8051;BME280;4068;42.158;24.732;2023-01-29T11:16:12;100050.50;;;7.75;82.61
8051;BME280;4068;42.158;24.732;2023-01-29T11:18:55;100040.03;;;7.88;78.56
8051;BME280;4068;42.158;24.732;2023-01-29T11:21:22;100014.84;;;7.68;81.04
8051;BME280;4068;42.158;24.732;2023-01-29T11:24:11;100006.97;;;7.52;80.92
8051;BME280;4068;42.158;24.732;2023-01-29T11:27:25;100044.28;;;8.05;79.85
8051;BME280;4068;42.158;24.732;2023-01-29T11:29:55;100035.56;;;7.74;80.85
8051;BME280;4068;42.158;24.732;2023-01-29T11:32:29;100023.97;;;7.63;83.04
8051;BME280;4068;42.158;24.732;2023-01-29T11:37:57;100010.41;;;7.83;80.64
8051;BME280;4068;42.158;24.732;2023-01-29T11:41:13;100017.56;;;7.95;79.36
8051;BME280;4068;42.158;24.732;2023-01-29T11:43:46;100004.00;;;7.87;79.58
8051;BME280;4068;42.158;24.732;2023-01-29T11:46:13;100014.91;;;8.10;78.41
8051;BME280;4068;42.158;24.732;2023-01-29T11:48:42;100004.22;;;8.26;76.28
8051;BME280;4068;42.158;24.732;2023-01-29T11:51:20;99999.94;;;8.52;75.87
8051;BME280;4068;42.158;24.732;2023-01-29T11:53:52;100013.81;;;8.56;77.29
8051;BME280;4068;42.158;24.732;2023-01-29T11:56:31;99998.56;;;8.74;74.42
8051;BME280;4068;42.158;24.732;2023-01-29T11:58:58;99985.72;;;8.68;74.46
8051;BME280;4068;42.158;24.732;2023-01-29T12:03:57;100007.31;;;8.74;73.05
8051;BME280;4068;42.158;24.732;2023-01-29T12:06:27;99995.09;;;8.86;71.81
8051;BME280;4068;42.158;24.732;2023-01-29T12:08:57;100003.44;;;8.53;73.52
8051;BME280;4068;42.158;24.732;2023-01-29T12:11:27;99993.75;;;8.66;74.17
8051;BME280;4068;42.158;24.732;2023-01-29T12:13:55;99983.00;;;8.13;75.74
8051;BME280;4068;42.158;24.732;2023-01-29T12:16:29;99993.78;;;8.10;76.31
8051;BME280;4068;42.158;24.732;2023-01-29T12:22:02;99981.28;;;8.26;74.77
8051;BME280;4068;42.158;24.732;2023-01-29T12:27:26;99962.25;;;8.21;74.24
8051;BME280;4068;42.158;24.732;2023-01-29T12:30:13;99964.94;;;8.07;74.61
8051;BME280;4068;42.158;24.732;2023-01-29T12:32:47;99971.16;;;8.33;75.36
8051;BME280;4068;42.158;24.732;2023-01-29T12:40:38;99969.19;;;8.37;73.08
8051;BME280;4068;42.158;24.732;2023-01-29T12:43:45;99947.78;;;8.00;75.05
8051;BME280;4068;42.158;24.732;2023-01-29T12:46:03;99966.34;;;8.12;75.16
8051;BME280;4068;42.158;24.732;2023-01-29T12:48:33;99935.50;;;7.99;74.86
8051;BME280;4068;42.158;24.732;2023-01-29T12:51:16;99966.59;;;8.22;75.27
8051;BME280;4068;42.158;24.732;2023-01-29T12:53:49;99963.13;;;8.07;75.09
8051;BME280;4068;42.158;24.732;2023-01-29T12:56:30;99949.66;;;7.83;76.19
8051;BME280;4068;42.158;24.732;2023-01-29T12:58:59;99975.94;;;7.99;75.69
8051;BME280;4068;42.158;24.732;2023-01-29T13:01:31;99967.34;;;8.24;73.61
8051;BME280;4068;42.158;24.732;2023-01-29T13:06:39;99953.75;;;8.16;73.86
8051;BME280;4068;42.158;24.732;2023-01-29T13:09:27;99961.97;;;8.11;74.90
8051;BME280;4068;42.158;24.732;2023-01-29T13:12:07;99970.44;;;8.31;72.84
8051;BME280;4068;42.158;24.732;2023-01-29T13:14:55;99973.84;;;8.19;71.53
8051;BME280;4068;42.158;24.732;2023-01-29T13:17:38;99975.88;;;7.86;74.08
8051;BME280;4068;42.158;24.732;2023-01-29T13:20:17;99961.25;;;7.95;72.49
8051;BME280;4068;42.158;24.732;2023-01-29T13:22:45;99976.50;;;8.19;70.47
8051;BME280;4068;42.158;24.732;2023-01-29T13:25:16;99938.50;;;8.07;68.16
8051;BME280;4068;42.158;24.732;2023-01-29T13:27:43;99959.50;;;8.23;68.90
8051;BME280;4068;42.158;24.732;2023-01-29T13:30:31;99972.69;;;8.37;68.18
8051;BME280;4068;42.158;24.732;2023-01-29T13:33:00;99949.41;;;8.15;68.10
8051;BME280;4068;42.158;24.732;2023-01-29T13:35:40;99972.63;;;8.24;68.40
8051;BME280;4068;42.158;24.732;2023-01-29T13:38:22;99970.47;;;8.02;68.89
8051;BME280;4068;42.158;24.732;2023-01-29T13:40:50;99949.38;;;7.88;68.01
8051;BME280;4068;42.158;24.732;2023-01-29T13:43:20;99969.38;;;7.92;68.46
8051;BME280;4068;42.158;24.732;2023-01-29T13:45:47;99967.13;;;7.86;68.58
8051;BME280;4068;42.158;24.732;2023-01-29T13:48:30;99947.88;;;7.69;69.68
8051;BME280;4068;42.158;24.732;2023-01-29T13:51:00;99975.06;;;7.71;69.99
8051;BME280;4068;42.158;24.732;2023-01-29T13:53:39;99958.53;;;7.39;70.93
8051;BME280;4068;42.158;24.732;2023-01-29T13:56:27;99973.25;;;7.43;71.56
8051;BME280;4068;42.158;24.732;2023-01-29T13:58:54;99972.09;;;7.33;71.93
8051;BME280;4068;42.158;24.732;2023-01-29T14:01:59;99970.88;;;7.38;72.10
8051;BME280;4068;42.158;24.732;2023-01-29T14:04:25;99976.81;;;7.28;72.54
8051;BME280;4068;42.158;24.732;2023-01-29T14:06:57;99977.00;;;7.24;72.33
8051;BME280;4068;42.158;24.732;2023-01-29T14:14:58;99982.78;;;7.15;73.29
8051;BME280;4068;42.158;24.732;2023-01-29T14:17:25;99975.03;;;6.98;74.03
8051;BME280;4068;42.158;24.732;2023-01-29T14:20:01;99974.84;;;7.01;74.56
8051;BME280;4068;42.158;24.732;2023-01-29T14:22:29;99981.44;;;6.94;73.31
8051;BME280;4068;42.158;24.732;2023-01-29T14:25:03;99979.16;;;6.87;74.81
8051;BME280;4068;42.158;24.732;2023-01-29T14:27:29;99981.19;;;6.82;74.90
8051;BME280;4068;42.158;24.732;2023-01-29T14:30:06;99984.84;;;6.96;74.04
8051;BME280;4068;42.158;24.732;2023-01-29T14:32:38;99958.78;;;6.75;73.83
8051;BME280;4068;42.158;24.732;2023-01-29T14:35:17;99998.72;;;6.83;74.44
8051;BME280;4068;42.158;24.732;2023-01-29T14:37:46;99980.53;;;6.79;73.57
8051;BME280;4068;42.158;24.732;2023-01-29T14:43:00;99995.34;;;6.81;74.98
8051;BME280;4068;42.158;24.732;2023-01-29T14:45:37;100008.44;;;6.83;74.97
8051;BME280;4068;42.158;24.732;2023-01-29T14:55:39;100006.72;;;6.82;77.93
8051;BME280;4068;42.158;24.732;2023-01-29T14:58:12;100015.47;;;6.82;78.75
8051;BME280;4068;42.158;24.732;2023-01-29T15:00:42;100012.19;;;6.79;79.13
8051;BME280;4068;42.158;24.732;2023-01-29T15:03:21;100010.84;;;6.71;79.21
8051;BME280;4068;42.158;24.732;2023-01-29T15:05:52;100004.78;;;6.69;79.87
8051;BME280;4068;42.158;24.732;2023-01-29T15:08:40;100008.78;;;6.61;79.90
8051;BME280;4068;42.158;24.732;2023-01-29T15:11:26;100009.47;;;6.48;80.87
8051;BME280;4068;42.158;24.732;2023-01-29T15:14:12;100007.09;;;6.44;81.39
8051;BME280;4068;42.158;24.732;2023-01-29T15:19:24;100019.00;;;6.35;81.61
8051;BME280;4068;42.158;24.732;2023-01-29T15:27:50;100014.50;;;6.21;82.98
8051;BME280;4068;42.158;24.732;2023-01-29T15:30:25;99988.41;;;6.00;83.53
8051;BME280;4068;42.158;24.732;2023-01-29T15:32:52;100024.44;;;6.16;84.31
8051;BME280;4068;42.158;24.732;2023-01-29T15:35:28;100028.00;;;6.15;84.43
8051;BME280;4068;42.158;24.732;2023-01-29T15:38:05;100023.09;;;6.09;85.04
8051;BME280;4068;42.158;24.732;2023-01-29T15:40:37;99994.03;;;5.77;85.11
8051;BME280;4068;42.158;24.732;2023-01-29T15:43:20;100034.72;;;5.87;86.41
8051;BME280;4068;42.158;24.732;2023-01-29T15:45:48;100032.00;;;5.88;86.75